Terminal Aerodrome Forecast
Issued by NWS Charleston, WV

Current Version | Previous Version | Graphics & Text | Print | Product List | Glossary On
Versions: 1 2 3 4 5 6 7 8 9 10 11 12 13 14 15 16 17 18 19 20 21 22 23 24
000
FTUS41 KRLX 220520
TAFBKW
TAF
KBKW 220520Z 2206/2306 09003KT 5SM BR SCT250
      TEMPO 2207/2208 2SM BR SCT002
     FM220800 00000KT 1SM BR VV002
     FM221230 09003KT 2SM BR BKN002
     FM221330 03004KT P6SM FEW040=

USA.gov is the U.S. government's official web portal to all federal, state and local government web resources and services.